createdAt,value
2023-10-10T00:00:19.675Z,15.35
2023-10-10T00:01:19.825Z,15.33
2023-10-10T00:02:20.469Z,15.33
2023-10-10T00:03:20.022Z,15.28
2023-10-10T00:04:19.979Z,15.28
2023-10-10T00:05:20.234Z,15.24
2023-10-10T00:06:20.154Z,15.19
2023-10-10T00:07:20.459Z,15.15
2023-10-10T00:08:20.350Z,15.14
2023-10-10T00:09:21.896Z,15.09
2023-10-10T00:10:20.486Z,15.07
2023-10-10T00:11:20.921Z,15.03
2023-10-10T00:12:20.644Z,15.00
2023-10-10T00:13:20.808Z,14.97
2023-10-10T00:14:21.010Z,14.94
2023-10-10T00:15:20.887Z,14.89
2023-10-10T00:16:21.051Z,14.88
2023-10-10T00:17:21.179Z,14.85
2023-10-10T00:18:21.199Z,14.88
2023-10-10T00:19:21.443Z,14.86
2023-10-10T00:20:21.311Z,14.82
2023-10-10T00:21:21.341Z,14.82
2023-10-10T00:22:21.689Z,14.79
2023-10-10T00:23:21.534Z,14.77
2023-10-10T00:24:21.585Z,14.72
2023-10-10T00:25:21.658Z,14.69
2023-10-10T00:26:21.725Z,14.66
2023-10-10T00:27:21.803Z,14.65
2023-10-10T00:28:21.906Z,14.63
2023-10-10T00:29:21.996Z,14.62
2023-10-10T00:30:21.994Z,14.60
2023-10-10T00:31:22.145Z,14.59
2023-10-10T00:32:22.271Z,14.58
2023-10-10T00:33:22.294Z,14.59
2023-10-10T00:34:22.363Z,14.55
2023-10-10T00:35:22.465Z,14.54
2023-10-10T00:36:22.539Z,14.58
2023-10-10T00:37:22.585Z,14.55
2023-10-10T00:38:22.703Z,14.54
2023-10-10T00:39:22.736Z,14.58
2023-10-10T00:40:22.833Z,14.59
2023-10-10T00:41:22.934Z,14.59
2023-10-10T00:42:22.999Z,14.55
2023-10-10T00:43:23.068Z,14.53
2023-10-10T00:44:23.250Z,14.53
2023-10-10T00:45:23.229Z,14.53
2023-10-10T00:46:23.600Z,14.48
2023-10-10T00:47:23.439Z,14.44
2023-10-10T00:48:23.831Z,14.40
2023-10-10T00:49:23.568Z,14.40
2023-10-10T00:50:23.688Z,14.37
2023-10-10T00:51:23.686Z,14.35
2023-10-10T00:52:23.778Z,14.32
2023-10-10T00:53:23.881Z,14.32
2023-10-10T00:54:23.957Z,14.28
2023-10-10T00:55:23.968Z,14.26
2023-10-10T00:56:24.353Z,14.26
2023-10-10T00:57:24.104Z,14.22
2023-10-10T00:58:24.173Z,14.20
2023-10-10T00:59:24.305Z,14.18
2023-10-10T01:00:24.303Z,14.17
2023-10-10T01:01:24.399Z,14.15
2023-10-10T01:02:24.881Z,14.11
2023-10-10T01:03:24.779Z,14.10
2023-10-10T01:04:24.615Z,14.07
2023-10-10T01:05:24.731Z,14.07
2023-10-10T01:06:24.757Z,14.05
2023-10-10T01:07:24.794Z,14.00
2023-10-10T01:08:24.973Z,13.99
2023-10-10T01:09:24.952Z,13.96
2023-10-10T01:10:25.031Z,13.96
2023-10-10T01:11:25.165Z,13.96
2023-10-10T01:12:25.217Z,13.95
2023-10-10T01:13:25.259Z,13.93
2023-10-10T01:14:25.362Z,13.92
2023-10-10T01:15:25.410Z,13.90
2023-10-10T01:16:25.573Z,13.87
2023-10-10T01:17:25.636Z,13.85
2023-10-10T01:18:25.806Z,13.83
2023-10-10T01:19:25.678Z,13.81
2023-10-10T01:20:26.101Z,13.83
2023-10-10T01:21:25.876Z,13.78
2023-10-10T01:22:25.960Z,13.78
2023-10-10T01:23:26.059Z,13.79
2023-10-10T01:24:26.083Z,13.77
2023-10-10T01:25:26.159Z,13.74
2023-10-10T01:26:26.267Z,13.74
2023-10-10T01:27:26.321Z,13.72
2023-10-10T01:28:26.372Z,13.70
2023-10-10T01:29:26.799Z,13.67
2023-10-10T01:30:26.557Z,13.65
2023-10-10T01:31:26.679Z,13.62
2023-10-10T01:32:26.686Z,13.60
2023-10-10T01:33:26.729Z,13.62
2023-10-10T01:34:27.057Z,13.63
2023-10-10T01:35:27.144Z,13.60
2023-10-10T01:36:26.955Z,13.59
2023-10-10T01:37:27.041Z,13.56
2023-10-10T01:38:27.179Z,13.54
2023-10-10T01:39:27.169Z,13.53
2023-10-10T01:40:27.285Z,13.56
2023-10-10T01:41:27.349Z,13.56
2023-10-10T01:42:27.424Z,13.56
2023-10-10T01:43:27.518Z,13.56
2023-10-10T01:44:27.629Z,13.54
2023-10-10T01:45:27.680Z,13.50
2023-10-10T01:46:27.782Z,13.49
2023-10-10T01:47:28.244Z,13.46
2023-10-10T01:48:27.922Z,13.42
2023-10-10T01:49:27.969Z,13.39
2023-10-10T01:50:28.624Z,13.38
2023-10-10T01:51:28.273Z,13.33
2023-10-10T01:52:28.279Z,13.33
2023-10-10T01:53:28.323Z,13.35
2023-10-10T01:54:28.411Z,13.37
2023-10-10T01:55:28.478Z,13.31
2023-10-10T01:56:28.625Z,13.28
2023-10-10T01:57:28.653Z,13.27
2023-10-10T01:58:28.757Z,13.22
2023-10-10T01:59:28.832Z,13.20
2023-10-10T02:00:28.979Z,13.20
2023-10-10T02:01:28.957Z,13.16
2023-10-10T02:02:29.126Z,13.18
2023-10-10T02:03:29.387Z,13.18
2023-10-10T02:04:29.201Z,13.16
2023-10-10T02:05:29.297Z,13.15
2023-10-10T02:06:29.617Z,13.15
2023-10-10T02:07:29.432Z,13.15
2023-10-10T02:08:29.601Z,13.16
2023-10-10T02:09:29.586Z,13.15
2023-10-10T02:10:29.685Z,13.15
2023-10-10T02:11:30.079Z,13.13
2023-10-10T02:12:29.832Z,13.11
2023-10-10T02:13:29.904Z,13.08
2023-10-10T02:14:30.282Z,13.08
2023-10-10T02:15:30.389Z,13.08
2023-10-10T02:16:30.503Z,13.05
2023-10-10T02:17:30.345Z,13.03
2023-10-10T02:18:30.330Z,13.00
2023-10-10T02:19:33.079Z,13.00
2023-10-10T02:20:30.879Z,13.04
2023-10-10T02:21:30.579Z,13.05
2023-10-10T02:22:30.679Z,13.03
2023-10-10T02:23:31.067Z,13.01
2023-10-10T02:24:30.828Z,13.00
2023-10-10T02:25:30.894Z,12.98
2023-10-10T02:26:31.010Z,12.98
2023-10-10T02:27:31.030Z,12.98
2023-10-10T02:28:31.147Z,12.97
2023-10-10T02:29:31.228Z,12.97
2023-10-10T02:30:31.266Z,12.98
2023-10-10T02:31:31.333Z,12.97
2023-10-10T02:32:31.532Z,12.97
2023-10-10T02:33:31.478Z,12.97
2023-10-10T02:34:31.581Z,12.98
2023-10-10T02:35:31.653Z,13.00
2023-10-10T02:36:32.162Z,13.01
2023-10-10T02:37:31.744Z,13.01
2023-10-10T02:38:31.875Z,13.01
2023-10-10T02:39:31.882Z,13.00
2023-10-10T02:40:31.980Z,13.00
2023-10-10T02:41:32.073Z,12.98
2023-10-10T02:42:32.134Z,13.04
2023-10-10T02:43:32.198Z,13.03
2023-10-10T02:44:32.297Z,13.04
2023-10-10T02:45:32.369Z,13.13
2023-10-10T02:46:32.455Z,13.22
2023-10-10T02:47:32.888Z,13.23
2023-10-10T02:48:32.570Z,13.25
2023-10-10T02:49:32.661Z,13.27
2023-10-10T02:50:32.801Z,13.25
2023-10-10T02:51:32.853Z,13.23
2023-10-10T02:52:32.860Z,13.23
2023-10-10T02:53:33.436Z,13.22
2023-10-10T02:54:33.015Z,13.22
2023-10-10T02:55:33.145Z,13.22
2023-10-10T02:56:33.292Z,13.22
2023-10-10T02:57:33.280Z,13.22
2023-10-10T02:58:33.353Z,13.23
2023-10-10T02:59:33.521Z,13.27
2023-10-10T03:00:33.544Z,13.28
2023-10-10T03:01:33.621Z,13.28
2023-10-10T03:02:33.774Z,13.27
2023-10-10T03:03:34.341Z,13.28
2023-10-10T03:04:33.799Z,13.27
2023-10-10T03:05:33.940Z,13.28
2023-10-10T03:06:33.960Z,13.27
2023-10-10T03:07:34.055Z,13.25
2023-10-10T03:08:34.153Z,13.25
2023-10-10T03:09:34.197Z,13.25
2023-10-10T03:10:34.286Z,13.25
2023-10-10T03:11:34.406Z,13.27
2023-10-10T03:12:34.459Z,13.27
2023-10-10T03:13:34.530Z,13.28
2023-10-10T03:14:34.641Z,13.27
2023-10-10T03:15:34.825Z,13.27
2023-10-10T03:16:34.811Z,13.25
2023-10-10T03:17:34.895Z,13.25
2023-10-10T03:18:34.895Z,13.22
2023-10-10T03:19:34.974Z,13.22
2023-10-10T03:20:35.081Z,13.22
2023-10-10T03:21:35.134Z,13.22
2023-10-10T03:22:35.253Z,13.22
2023-10-10T03:23:35.328Z,13.22
2023-10-10T03:24:35.374Z,13.23
2023-10-10T03:25:35.452Z,13.23
2023-10-10T03:26:35.884Z,13.23
2023-10-10T03:27:35.643Z,13.20
2023-10-10T03:28:35.703Z,13.20
2023-10-10T03:29:36.047Z,13.20
2023-10-10T03:30:35.817Z,13.20
2023-10-10T03:31:35.950Z,13.20
2023-10-10T03:32:36.038Z,13.20
2023-10-10T03:33:36.339Z,13.22
2023-10-10T03:34:36.143Z,13.25
2023-10-10T03:35:36.269Z,13.25
2023-10-10T03:36:36.307Z,13.28
2023-10-10T03:37:36.375Z,13.31
2023-10-10T03:38:36.513Z,13.37
2023-10-10T03:39:36.536Z,13.39
2023-10-10T03:40:36.807Z,13.42
2023-10-10T03:41:36.679Z,13.44
2023-10-10T03:42:36.738Z,13.47
2023-10-10T03:43:36.821Z,13.49
2023-10-10T03:44:36.990Z,13.52
2023-10-10T03:45:36.961Z,13.56
2023-10-10T03:46:37.045Z,13.59
2023-10-10T03:47:37.151Z,13.62
2023-10-10T03:48:37.224Z,13.63
2023-10-10T03:49:37.266Z,13.67
2023-10-10T03:50:37.398Z,13.70
2023-10-10T03:51:37.450Z,13.70
2023-10-10T03:52:37.502Z,13.74
2023-10-10T03:53:37.624Z,13.75
2023-10-10T03:54:37.900Z,13.77
2023-10-10T03:55:37.754Z,13.78
2023-10-10T03:56:37.831Z,13.79
2023-10-10T03:57:38.119Z,13.85
2023-10-10T03:58:37.938Z,13.87
2023-10-10T03:59:38.084Z,13.89
2023-10-10T04:00:38.133Z,13.92
2023-10-10T04:01:38.213Z,13.93
2023-10-10T04:02:38.383Z,13.93
2023-10-10T04:03:38.418Z,13.95
2023-10-10T04:04:38.402Z,13.93
2023-10-10T04:05:38.731Z,13.93
2023-10-10T04:06:38.569Z,13.95
2023-10-10T04:07:39.359Z,13.95
2023-10-10T04:08:38.747Z,13.95
2023-10-10T04:09:39.052Z,13.96
2023-10-10T04:10:38.841Z,13.95
2023-10-10T04:11:39.002Z,13.99
2023-10-10T04:12:38.993Z,14.00
2023-10-10T04:13:39.071Z,13.99
2023-10-10T04:14:39.255Z,14.00
2023-10-10T04:15:39.233Z,14.00
2023-10-10T04:16:39.344Z,14.00
2023-10-10T04:17:39.462Z,14.03
2023-10-10T04:18:39.435Z,13.99
2023-10-10T04:19:39.559Z,13.99
2023-10-10T04:20:39.655Z,13.99
2023-10-10T04:21:39.738Z,13.99
2023-10-10T04:22:40.731Z,13.97
2023-10-10T04:23:40.160Z,13.97
2023-10-10T04:24:39.913Z,13.97
2023-10-10T04:25:40.000Z,13.97
2023-10-10T04:26:40.689Z,13.99
2023-10-10T04:27:40.132Z,13.97
2023-10-10T04:28:40.212Z,13.99
2023-10-10T04:29:40.403Z,14.03
2023-10-10T04:30:40.410Z,14.03
2023-10-10T04:31:40.563Z,14.03
2023-10-10T04:32:40.785Z,14.00
2023-10-10T04:33:40.888Z,14.00
2023-10-10T04:34:40.680Z,14.03
2023-10-10T04:35:40.783Z,14.03
2023-10-10T04:36:40.828Z,14.03
2023-10-10T04:37:40.937Z,14.03
2023-10-10T04:38:41.274Z,14.03
2023-10-10T04:39:41.046Z,14.04
2023-10-10T04:40:41.384Z,14.04
2023-10-10T04:41:41.338Z,14.05
2023-10-10T04:42:41.394Z,14.04
2023-10-10T04:43:41.617Z,14.05
2023-10-10T04:44:41.476Z,14.05
2023-10-10T04:45:41.817Z,14.07
2023-10-10T04:46:41.608Z,14.08
2023-10-10T04:47:42.031Z,14.07
2023-10-10T04:48:41.735Z,14.07
2023-10-10T04:49:42.115Z,14.07
2023-10-10T04:50:42.211Z,14.05
2023-10-10T04:51:41.981Z,14.05
2023-10-10T04:52:42.104Z,14.07
2023-10-10T04:53:42.459Z,14.05
2023-10-10T04:54:42.457Z,14.03
2023-10-10T04:55:42.311Z,14.03
2023-10-10T04:56:42.438Z,14.00
2023-10-10T04:57:42.490Z,13.99
2023-10-10T04:58:42.554Z,13.96
2023-10-10T04:59:42.698Z,13.92
2023-10-10T05:00:42.677Z,13.90
2023-10-10T05:01:42.791Z,13.89
2023-10-10T05:02:42.952Z,13.86
2023-10-10T05:03:43.387Z,13.85
2023-10-10T05:04:42.967Z,13.83
2023-10-10T05:05:43.052Z,13.81
2023-10-10T05:06:43.118Z,13.78
2023-10-10T05:07:43.216Z,13.78
2023-10-10T05:08:43.446Z,13.77
2023-10-10T05:09:43.380Z,13.75
2023-10-10T05:10:43.465Z,13.74
2023-10-10T05:11:43.598Z,13.74
2023-10-10T05:12:43.668Z,13.72
2023-10-10T05:13:43.752Z,13.74
2023-10-10T05:14:43.784Z,13.74
2023-10-10T05:15:43.912Z,13.77
2023-10-10T05:16:44.207Z,13.78
2023-10-10T05:17:44.050Z,13.78
2023-10-10T05:18:44.037Z,13.79
2023-10-10T05:19:44.153Z,13.81
2023-10-10T05:20:44.308Z,13.79
2023-10-10T05:21:44.318Z,13.79
2023-10-10T05:22:44.334Z,13.78
2023-10-10T05:23:44.493Z,13.79
2023-10-10T05:24:44.657Z,13.79
2023-10-10T05:25:44.795Z,13.78
2023-10-10T05:26:44.670Z,13.78
2023-10-10T05:27:44.752Z,13.79
2023-10-10T05:28:44.800Z,13.83
2023-10-10T05:29:44.935Z,13.86
2023-10-10T05:30:44.973Z,13.93
2023-10-10T05:31:45.061Z,13.96
2023-10-10T05:32:45.191Z,14.00
2023-10-10T05:33:45.172Z,14.05
2023-10-10T05:34:45.555Z,14.08
2023-10-10T05:35:45.552Z,14.10
2023-10-10T05:36:45.480Z,14.12
2023-10-10T05:37:45.523Z,14.14
2023-10-10T05:38:45.632Z,14.17
2023-10-10T05:39:45.721Z,14.18
2023-10-10T05:40:45.776Z,14.20
2023-10-10T05:41:45.984Z,14.20
2023-10-10T05:42:45.924Z,14.23
2023-10-10T05:43:46.105Z,14.23
2023-10-10T05:44:46.111Z,14.25
2023-10-10T05:45:46.204Z,14.25
2023-10-10T05:46:46.331Z,14.26
2023-10-10T05:47:46.407Z,14.28
2023-10-10T05:48:47.262Z,14.29
2023-10-10T05:49:46.533Z,14.28
2023-10-10T05:50:46.605Z,14.28
2023-10-10T05:51:46.691Z,14.29
2023-10-10T05:52:46.778Z,14.28
2023-10-10T05:53:46.900Z,14.26
2023-10-10T05:54:46.911Z,14.25
2023-10-10T05:55:46.985Z,14.25
2023-10-10T05:56:47.130Z,14.23
2023-10-10T05:57:47.313Z,14.25
2023-10-10T05:58:47.224Z,14.26
2023-10-10T05:59:47.323Z,14.26
2023-10-10T06:00:47.422Z,14.29
2023-10-10T06:01:47.466Z,14.30
2023-10-10T06:02:47.583Z,14.32
2023-10-10T06:03:47.707Z,14.33
2023-10-10T06:04:47.660Z,14.33
2023-10-10T06:05:47.834Z,14.33
2023-10-10T06:06:47.864Z,14.33
2023-10-10T06:07:47.952Z,14.33
2023-10-10T06:08:48.098Z,14.35
2023-10-10T06:09:48.118Z,14.33
2023-10-10T06:10:48.209Z,14.33
2023-10-10T06:11:48.339Z,14.32
2023-10-10T06:12:48.371Z,14.29
2023-10-10T06:13:48.501Z,14.32
2023-10-10T06:14:48.607Z,14.30
2023-10-10T06:15:48.656Z,14.30
2023-10-10T06:16:48.736Z,14.32
2023-10-10T06:17:48.875Z,14.32
2023-10-10T06:18:49.293Z,14.32
2023-10-10T06:19:48.959Z,14.30
2023-10-10T06:21:49.144Z,14.29
2023-10-10T06:22:49.182Z,14.32
2023-10-10T06:23:49.355Z,14.33
2023-10-10T06:24:49.389Z,14.33
2023-10-10T06:25:49.394Z,14.36
2023-10-10T06:26:49.524Z,14.37
2023-10-10T06:27:49.542Z,14.37
2023-10-10T06:28:49.657Z,14.36
2023-10-10T06:29:49.735Z,14.41
2023-10-10T06:30:49.784Z,14.41
2023-10-10T06:31:49.862Z,14.40
2023-10-10T06:32:51.452Z,14.37
2023-10-10T06:33:50.094Z,14.36
2023-10-10T06:34:50.795Z,14.41
2023-10-10T06:35:50.163Z,14.37
2023-10-10T06:36:50.242Z,14.37
2023-10-10T06:37:50.323Z,14.37
2023-10-10T06:38:50.425Z,14.36
2023-10-10T06:39:50.480Z,14.36
2023-10-10T06:40:50.576Z,14.37
2023-10-10T06:41:50.680Z,14.37
2023-10-10T06:42:50.752Z,14.36
2023-10-10T06:43:50.843Z,14.36
2023-10-10T06:44:50.962Z,14.37
2023-10-10T06:45:51.063Z,14.37
2023-10-10T06:46:51.126Z,14.40
2023-10-10T06:47:51.302Z,14.41
2023-10-10T06:48:51.267Z,14.43
2023-10-10T06:49:51.371Z,14.44
2023-10-10T06:50:51.464Z,14.41
2023-10-10T06:51:51.559Z,14.41
2023-10-10T06:52:51.617Z,14.40
2023-10-10T06:53:51.734Z,14.40
2023-10-10T06:54:51.769Z,14.41
2023-10-10T06:55:51.868Z,14.40
2023-10-10T06:56:51.969Z,14.37
2023-10-10T06:57:52.078Z,14.40
2023-10-10T06:58:52.114Z,14.40
2023-10-10T06:59:52.193Z,14.41
2023-10-10T07:00:52.376Z,14.44
2023-10-10T07:01:52.378Z,14.44
2023-10-10T07:02:52.572Z,14.47
2023-10-10T07:03:52.592Z,14.51
2023-10-10T07:04:52.661Z,14.55
2023-10-10T07:05:52.729Z,14.62
2023-10-10T07:06:52.835Z,14.66
2023-10-10T07:07:52.879Z,14.69
2023-10-10T07:08:52.969Z,14.72
2023-10-10T07:09:53.052Z,14.78
2023-10-10T07:10:53.164Z,14.84
2023-10-10T07:11:53.249Z,14.89
2023-10-10T07:12:53.330Z,14.91
2023-10-10T07:13:53.441Z,14.96
2023-10-10T07:14:53.608Z,15.00
2023-10-10T07:15:53.940Z,15.06
2023-10-10T07:16:53.662Z,15.10
2023-10-10T07:17:53.837Z,15.11
2023-10-10T07:18:53.825Z,15.17
2023-10-10T07:19:53.904Z,15.19
2023-10-10T07:20:54.010Z,15.24
2023-10-10T07:21:54.093Z,15.25
2023-10-10T07:22:54.153Z,15.28
2023-10-10T07:23:54.281Z,15.35
2023-10-10T07:24:54.393Z,15.36
2023-10-10T07:25:54.433Z,15.40
2023-10-10T07:26:54.495Z,15.43
2023-10-10T07:27:54.582Z,15.47
2023-10-10T07:28:55.018Z,15.47
2023-10-10T07:29:54.733Z,15.51
2023-10-10T07:30:54.861Z,15.54
2023-10-10T07:31:54.922Z,15.58
2023-10-10T07:32:55.048Z,15.59
2023-10-10T07:33:55.113Z,15.65
2023-10-10T07:34:55.198Z,15.70
2023-10-10T07:35:55.239Z,15.73
2023-10-10T07:36:55.313Z,15.76
2023-10-10T07:37:55.409Z,15.82
2023-10-10T07:38:55.515Z,15.84
2023-10-10T07:39:55.556Z,15.88
2023-10-10T07:40:55.623Z,15.94
2023-10-10T07:41:55.749Z,15.98
2023-10-10T07:42:55.840Z,16.01
2023-10-10T07:43:55.963Z,16.04
2023-10-10T07:44:56.112Z,16.05
2023-10-10T07:45:56.073Z,16.12
2023-10-10T07:46:56.186Z,16.15
2023-10-10T07:47:56.302Z,16.20
2023-10-10T07:48:56.319Z,16.26
2023-10-10T07:49:56.428Z,16.33
2023-10-10T07:50:56.501Z,16.38
2023-10-10T07:51:56.824Z,16.41
2023-10-10T07:52:56.671Z,16.43
2023-10-10T07:53:56.763Z,16.49
2023-10-10T07:54:56.891Z,16.49
2023-10-10T07:55:56.940Z,16.60
2023-10-10T07:56:57.036Z,16.64
2023-10-10T07:57:57.106Z,16.68
2023-10-10T07:58:57.188Z,16.72
2023-10-10T07:59:57.299Z,16.78
2023-10-10T08:00:57.387Z,16.89
2023-10-10T08:01:57.407Z,16.96
2023-10-10T08:02:57.588Z,17.06
2023-10-10T08:03:57.698Z,17.11
2023-10-10T08:04:57.868Z,17.09
2023-10-10T08:05:57.719Z,17.15
2023-10-10T08:06:57.802Z,17.23
2023-10-10T08:07:57.894Z,17.33
2023-10-10T08:08:57.982Z,17.39
2023-10-10T08:09:58.224Z,17.39
2023-10-10T08:10:58.143Z,17.44
2023-10-10T08:11:58.375Z,17.54
2023-10-10T08:12:58.326Z,17.68
2023-10-10T08:13:58.374Z,17.80
2023-10-10T08:14:59.376Z,17.83
2023-10-10T08:15:58.500Z,17.83
2023-10-10T08:16:58.621Z,17.89
2023-10-10T08:17:58.757Z,17.94
2023-10-10T08:18:58.738Z,17.97
2023-10-10T08:19:58.849Z,18.00
2023-10-10T08:20:58.958Z,17.95
2023-10-10T08:21:59.021Z,18.03
2023-10-10T08:22:59.105Z,18.03
2023-10-10T08:23:59.188Z,18.05
2023-10-10T08:24:59.318Z,18.15
2023-10-10T08:25:59.350Z,18.16
2023-10-10T08:26:59.605Z,18.25
2023-10-10T08:27:59.513Z,18.26
2023-10-10T08:28:59.592Z,18.29
2023-10-10T08:29:59.699Z,18.31
2023-10-10T08:30:59.776Z,18.37
2023-10-10T08:31:59.823Z,18.40
2023-10-10T08:33:00.001Z,18.45
2023-10-10T08:34:00.006Z,18.50
2023-10-10T08:35:00.145Z,18.56
2023-10-10T08:36:00.260Z,18.63
2023-10-10T08:37:00.237Z,18.65
2023-10-10T08:38:00.329Z,18.70
2023-10-10T08:39:00.483Z,18.78
2023-10-10T08:40:00.436Z,18.84
2023-10-10T08:41:00.545Z,18.96
2023-10-10T08:42:00.627Z,19.04
2023-10-10T08:43:00.718Z,19.29
2023-10-10T08:44:00.830Z,19.49
2023-10-10T08:45:01.761Z,19.54
2023-10-10T08:46:01.004Z,19.63
2023-10-10T08:47:01.092Z,19.63
2023-10-10T08:48:01.217Z,19.54
2023-10-10T08:49:01.275Z,19.76
2023-10-10T08:50:01.346Z,19.94
2023-10-10T08:51:01.502Z,20.02
2023-10-10T08:52:01.749Z,20.06
2023-10-10T08:53:01.611Z,20.11
2023-10-10T08:54:01.788Z,20.14
2023-10-10T08:55:01.811Z,20.37
2023-10-10T08:56:01.862Z,20.39
2023-10-10T08:57:02.423Z,20.47
2023-10-10T08:58:01.986Z,20.67
2023-10-10T08:59:02.073Z,20.90
2023-10-10T09:00:02.251Z,21.05
2023-10-10T09:01:02.461Z,21.22
2023-10-10T09:02:02.350Z,21.21
2023-10-10T09:03:02.474Z,21.11
2023-10-10T09:04:02.572Z,21.18
2023-10-10T09:05:02.559Z,21.36
2023-10-10T09:06:02.656Z,21.57
2023-10-10T09:07:02.760Z,21.60
2023-10-10T09:08:02.822Z,21.75
2023-10-10T09:09:02.902Z,21.80
2023-10-10T09:10:02.977Z,21.98
2023-10-10T09:11:03.072Z,22.06
2023-10-10T09:12:03.161Z,21.76
2023-10-10T09:13:03.272Z,21.60
2023-10-10T09:14:03.320Z,21.48
2023-10-10T09:15:03.388Z,21.43
2023-10-10T09:16:03.486Z,21.33
2023-10-10T09:17:03.585Z,21.50
2023-10-10T09:18:03.746Z,21.58
2023-10-10T09:19:03.741Z,21.60
2023-10-10T09:20:03.839Z,21.60
2023-10-10T09:21:03.921Z,21.69
2023-10-10T09:22:04.004Z,21.82
2023-10-10T09:23:04.137Z,22.18
2023-10-10T09:24:04.153Z,22.41
2023-10-10T09:25:04.244Z,22.54
2023-10-10T09:26:04.334Z,22.66
2023-10-10T09:27:04.415Z,22.72
2023-10-10T09:28:04.512Z,22.81
2023-10-10T09:29:04.608Z,22.88
2023-10-10T09:30:04.640Z,22.70
2023-10-10T09:31:04.732Z,22.81
2023-10-10T09:32:04.788Z,22.78
2023-10-10T09:33:04.928Z,22.80
2023-10-10T09:34:05.053Z,22.94
2023-10-10T09:35:05.058Z,23.13
2023-10-10T09:36:05.122Z,23.28
2023-10-10T09:37:05.229Z,23.40
2023-10-10T09:38:05.371Z,23.34
2023-10-10T09:39:05.439Z,23.27
2023-10-10T09:40:05.456Z,23.37
2023-10-10T09:41:05.525Z,23.68
2023-10-10T09:42:05.639Z,23.76
2023-10-10T09:43:05.722Z,23.88
2023-10-10T09:44:05.821Z,23.96
2023-10-10T09:45:05.860Z,23.92
2023-10-10T09:46:08.736Z,24.11
2023-10-10T09:47:06.028Z,24.21
2023-10-10T09:48:06.193Z,24.06
2023-10-10T09:49:06.259Z,23.91
2023-10-10T09:50:06.290Z,23.84
2023-10-10T09:51:06.404Z,24.33
2023-10-10T09:52:06.434Z,24.63
2023-10-10T09:53:06.549Z,24.51
2023-10-10T09:54:06.654Z,24.78
2023-10-10T09:55:06.713Z,25.07
2023-10-10T09:56:06.746Z,25.18
2023-10-10T09:57:06.839Z,24.89
2023-10-10T09:58:06.968Z,24.38
2023-10-10T09:59:07.002Z,24.39
2023-10-10T10:01:07.155Z,24.38
2023-10-10T10:02:07.504Z,24.29
2023-10-10T10:03:07.408Z,24.40
2023-10-10T10:04:07.403Z,24.58
2023-10-10T10:05:07.589Z,24.65
2023-10-10T10:06:07.624Z,24.98
2023-10-10T10:07:08.264Z,25.13
2023-10-10T10:08:07.767Z,25.06
2023-10-10T10:09:07.831Z,24.92
2023-10-10T10:10:07.921Z,24.78
2023-10-10T10:11:08.265Z,24.63
2023-10-10T10:12:08.079Z,24.51
2023-10-10T10:13:08.154Z,24.45
2023-10-10T10:14:15.035Z,24.48
2023-10-10T10:15:08.336Z,24.50
2023-10-10T10:16:08.433Z,24.38
2023-10-10T10:17:08.469Z,24.14
2023-10-10T10:18:08.621Z,24.01
2023-10-10T10:19:08.640Z,24.08
2023-10-10T10:20:08.720Z,24.11
2023-10-10T10:21:08.798Z,24.23
2023-10-10T10:22:08.891Z,24.28
2023-10-10T10:23:08.961Z,24.23
2023-10-10T10:24:09.036Z,24.20
2023-10-10T10:25:09.154Z,24.05
2023-10-10T10:26:09.219Z,24.14
2023-10-10T10:27:09.288Z,24.47
2023-10-10T10:28:09.364Z,24.45
2023-10-10T10:29:09.451Z,24.61
2023-10-10T10:30:10.117Z,24.93
2023-10-10T10:31:09.595Z,24.93
2023-10-10T10:32:09.725Z,24.73
2023-10-10T10:33:09.838Z,24.69
2023-10-10T10:34:09.794Z,25.08
2023-10-10T10:35:09.896Z,25.08
2023-10-10T10:36:10.061Z,24.70
2023-10-10T10:37:10.098Z,24.38
2023-10-10T10:38:10.156Z,24.08
2023-10-10T10:39:10.240Z,24.08
2023-10-10T10:40:10.320Z,24.26
2023-10-10T10:41:10.459Z,24.54
2023-10-10T10:42:10.487Z,24.89
2023-10-10T10:43:10.596Z,24.95
2023-10-10T10:44:10.654Z,25.16
2023-10-10T10:45:10.746Z,25.11
2023-10-10T10:46:10.876Z,25.47
2023-10-10T10:47:11.042Z,25.53
2023-10-10T10:48:11.075Z,25.60
2023-10-10T10:49:11.116Z,25.25
2023-10-10T10:50:11.258Z,25.04
2023-10-10T10:51:11.339Z,25.23
2023-10-10T10:52:11.366Z,25.54
2023-10-10T10:53:11.491Z,25.85
2023-10-10T10:54:11.542Z,25.73
2023-10-10T10:55:11.630Z,25.85
2023-10-10T10:56:11.776Z,25.95
2023-10-10T10:57:11.799Z,25.96
2023-10-10T10:58:11.867Z,25.78
2023-10-10T10:59:12.182Z,25.58
2023-10-10T11:00:12.136Z,25.38
2023-10-10T11:01:12.138Z,25.47
2023-10-10T11:02:12.237Z,25.60
2023-10-10T11:03:12.330Z,25.85
2023-10-10T11:04:12.402Z,26.05
2023-10-10T11:05:12.515Z,26.56
2023-10-10T11:06:12.586Z,27.08
2023-10-10T11:07:12.646Z,27.21
2023-10-10T11:08:13.239Z,27.55
2023-10-10T11:09:12.867Z,28.00
2023-10-10T11:10:12.905Z,28.14
2023-10-10T11:11:13.058Z,27.82
2023-10-10T11:12:13.108Z,27.78
2023-10-10T11:13:13.151Z,27.92
2023-10-10T11:14:13.281Z,27.90
2023-10-10T11:15:13.357Z,27.96
2023-10-10T11:16:13.551Z,27.26
2023-10-10T11:17:13.550Z,27.02
2023-10-10T11:18:13.730Z,27.27
2023-10-10T11:19:14.115Z,27.52
2023-10-10T11:20:13.809Z,27.51
2023-10-10T11:21:13.899Z,27.25
2023-10-10T11:22:13.990Z,27.37
2023-10-10T11:23:14.130Z,27.83
2023-10-10T11:24:14.256Z,27.82
2023-10-10T11:25:14.210Z,27.73
2023-10-10T11:26:14.409Z,27.74
2023-10-10T11:27:14.434Z,27.92
2023-10-10T11:28:14.453Z,27.80
2023-10-10T11:29:14.646Z,27.63
2023-10-10T11:30:14.617Z,27.45
2023-10-10T11:31:14.715Z,27.58
2023-10-10T11:32:15.065Z,27.86
2023-10-10T11:33:15.024Z,27.96
2023-10-10T11:34:15.094Z,28.04
2023-10-10T11:35:15.057Z,28.01
2023-10-10T11:36:15.134Z,27.89
2023-10-10T11:37:15.294Z,28.10
2023-10-10T11:38:15.340Z,28.39
2023-10-10T11:39:15.429Z,28.78
2023-10-10T11:40:15.489Z,29.12
2023-10-10T11:41:15.625Z,29.10
2023-10-10T11:42:15.683Z,29.23
2023-10-10T11:43:15.759Z,29.16
2023-10-10T11:44:16.011Z,29.51
2023-10-10T11:45:16.071Z,29.88
2023-10-10T11:46:16.045Z,29.91
2023-10-10T11:47:16.143Z,30.02
2023-10-10T11:48:17.056Z,29.56
2023-10-10T11:49:16.302Z,29.90
2023-10-10T11:50:16.471Z,30.65
2023-10-10T11:51:16.454Z,31.66
2023-10-10T11:52:16.565Z,32.73
2023-10-10T11:53:16.836Z,32.33
2023-10-10T11:54:16.945Z,32.22
2023-10-10T11:55:16.849Z,32.01
2023-10-10T11:56:16.945Z,31.39
2023-10-10T11:57:17.040Z,31.24
2023-10-10T11:58:17.130Z,31.02
2023-10-10T11:59:17.210Z,30.90
2023-10-10T12:00:27.239Z,31.03
2023-10-10T12:01:17.356Z,30.81
2023-10-10T12:02:17.415Z,30.69
2023-10-10T12:03:17.690Z,30.94
2023-10-10T12:04:17.785Z,31.65
2023-10-10T12:05:17.726Z,31.94
2023-10-10T12:06:17.808Z,31.69
2023-10-10T12:07:17.851Z,31.71
2023-10-10T12:08:18.447Z,31.78
2023-10-10T12:09:18.075Z,31.58
2023-10-10T12:10:18.179Z,31.42
2023-10-10T12:11:18.246Z,31.17
2023-10-10T12:12:19.831Z,31.07
2023-10-10T12:13:18.414Z,31.61
2023-10-10T12:14:18.856Z,31.58
2023-10-10T12:15:18.553Z,31.12
2023-10-10T12:16:18.737Z,31.02
2023-10-10T12:17:18.755Z,31.40
2023-10-10T12:18:18.968Z,32.26
2023-10-10T12:19:18.959Z,32.30
2023-10-10T12:20:19.071Z,32.60
2023-10-10T12:21:19.071Z,33.49
2023-10-10T12:22:19.187Z,33.98
2023-10-10T12:23:19.272Z,34.25
2023-10-10T12:24:19.444Z,33.27
2023-10-10T12:25:19.387Z,32.48
2023-10-10T12:26:19.705Z,32.30
2023-10-10T12:27:19.591Z,32.65
2023-10-10T12:28:19.677Z,32.49
2023-10-10T12:29:19.756Z,32.30
2023-10-10T12:30:19.827Z,31.71
2023-10-10T12:31:19.929Z,31.70
2023-10-10T12:32:20.757Z,31.43
2023-10-10T12:33:20.109Z,31.05
2023-10-10T12:34:20.988Z,30.78
2023-10-10T12:35:20.295Z,31.05
2023-10-10T12:36:20.290Z,30.77
2023-10-10T12:37:20.335Z,30.37
2023-10-10T12:38:20.496Z,29.95
2023-10-10T12:39:20.575Z,29.90
2023-10-10T12:40:21.225Z,29.72
2023-10-10T12:41:20.786Z,29.81
2023-10-10T12:42:20.785Z,29.76
2023-10-10T12:43:20.846Z,29.41
2023-10-10T12:44:21.012Z,28.84
2023-10-10T12:45:21.079Z,28.45
2023-10-10T12:46:21.113Z,28.56
2023-10-10T12:47:21.276Z,28.29
2023-10-10T12:49:27.868Z,28.41
2023-10-10T12:50:28.975Z,28.11
2023-10-10T12:51:29.084Z,27.68
2023-10-10T12:52:29.128Z,27.14
2023-10-10T12:53:29.457Z,26.96
2023-10-10T12:54:29.274Z,26.85
2023-10-10T12:55:29.346Z,26.68
2023-10-10T12:56:29.587Z,26.66